sensor_id;sensor_type;location;lat;lon;timestamp;pressure;altitude;pressure_sealevel;temperature;humidity
54870;BME280;40756;-37.950;145.008;2023-02-12T00:01:46;100903.01;;;17.47;51.46
54870;BME280;40756;-37.950;145.008;2023-02-12T00:04:16;100904.74;;;18.20;49.68
54870;BME280;40756;-37.950;145.008;2023-02-12T00:06:45;100910.77;;;18.38;49.49
54870;BME280;40756;-37.950;145.008;2023-02-12T00:09:15;100917.52;;;17.40;49.96
54870;BME280;40756;-37.950;145.008;2023-02-12T00:11:44;100917.56;;;17.90;48.24
54870;BME280;40756;-37.950;145.008;2023-02-12T00:14:13;100918.23;;;18.42;47.69
54870;BME280;40756;-37.950;145.008;2023-02-12T00:16:43;100935.12;;;18.95;47.55
54870;BME280;40756;-37.950;145.008;2023-02-12T00:19:12;100933.14;;;18.57;46.58
54870;BME280;40756;-37.950;145.008;2023-02-12T00:21:42;100932.78;;;18.48;46.54
54870;BME280;40756;-37.950;145.008;2023-02-12T00:24:11;100937.17;;;18.70;45.81
54870;BME280;40756;-37.950;145.008;2023-02-12T00:26:41;100929.38;;;18.65;44.82
54870;BME280;40756;-37.950;145.008;2023-02-12T00:29:11;100933.22;;;18.52;44.74
54870;BME280;40756;-37.950;145.008;2023-02-12T00:31:42;100939.63;;;18.53;43.75
54870;BME280;40756;-37.950;145.008;2023-02-12T00:34:11;100947.95;;;19.03;43.55
54870;BME280;40756;-37.950;145.008;2023-02-12T00:36:41;100933.89;;;19.41;42.10
54870;BME280;40756;-37.950;145.008;2023-02-12T00:39:10;100934.63;;;19.41;42.99
54870;BME280;40756;-37.950;145.008;2023-02-12T00:41:40;100938.59;;;18.97;41.26
54870;BME280;40756;-37.950;145.008;2023-02-12T00:44:10;100934.76;;;19.48;40.95
54870;BME280;40756;-37.950;145.008;2023-02-12T00:46:39;100937.72;;;19.45;40.99
54870;BME280;40756;-37.950;145.008;2023-02-12T00:49:09;100941.64;;;19.53;39.98
54870;BME280;40756;-37.950;145.008;2023-02-12T00:51:38;100937.67;;;19.37;41.16
54870;BME280;40756;-37.950;145.008;2023-02-12T00:54:08;100948.39;;;19.30;39.76
54870;BME280;40756;-37.950;145.008;2023-02-12T00:56:37;100950.64;;;19.66;39.62
54870;BME280;40756;-37.950;145.008;2023-02-12T00:59:06;100956.71;;;19.48;40.17
54870;BME280;40756;-37.950;145.008;2023-02-12T01:01:36;100954.62;;;19.78;38.59
54870;BME280;40756;-37.950;145.008;2023-02-12T01:04:05;100952.79;;;19.56;37.96
54870;BME280;40756;-37.950;145.008;2023-02-12T01:06:35;100955.43;;;19.72;38.20
54870;BME280;40756;-37.950;145.008;2023-02-12T01:09:04;100960.72;;;19.76;38.16
54870;BME280;40756;-37.950;145.008;2023-02-12T01:11:34;100956.47;;;20.03;37.51
54870;BME280;40756;-37.950;145.008;2023-02-12T01:14:03;100963.35;;;20.29;36.21
54870;BME280;40756;-37.950;145.008;2023-02-12T01:16:34;100967.84;;;20.02;36.80
54870;BME280;40756;-37.950;145.008;2023-02-12T01:19:04;100958.55;;;20.00;38.24
54870;BME280;40756;-37.950;145.008;2023-02-12T01:21:34;100961.27;;;20.08;36.60
54870;BME280;40756;-37.950;145.008;2023-02-12T01:24:05;100968.15;;;19.95;36.72
54870;BME280;40756;-37.950;145.008;2023-02-12T01:26:35;100965.61;;;20.53;36.51
54870;BME280;40756;-37.950;145.008;2023-02-12T01:29:07;100969.11;;;20.19;36.78
54870;BME280;40756;-37.950;145.008;2023-02-12T01:31:37;100967.93;;;20.39;36.61
54870;BME280;40756;-37.950;145.008;2023-02-12T01:34:09;100965.37;;;19.97;36.94
54870;BME280;40756;-37.950;145.008;2023-02-12T01:36:39;100964.61;;;20.86;35.91
54870;BME280;40756;-37.950;145.008;2023-02-12T01:39:10;100958.22;;;21.25;34.42
54870;BME280;40756;-37.950;145.008;2023-02-12T01:41:43;100969.14;;;21.00;33.96
54870;BME280;40756;-37.950;145.008;2023-02-12T01:44:16;100969.32;;;20.82;34.40
54870;BME280;40756;-37.950;145.008;2023-02-12T01:46:47;100964.22;;;21.03;33.77
54870;BME280;40756;-37.950;145.008;2023-02-12T01:49:20;100960.47;;;21.21;32.93
54870;BME280;40756;-37.950;145.008;2023-02-12T01:51:52;100966.07;;;20.28;33.45
54870;BME280;40756;-37.950;145.008;2023-02-12T01:54:24;100958.79;;;20.98;33.04
54870;BME280;40756;-37.950;145.008;2023-02-12T01:56:55;100970.66;;;20.97;31.70
54870;BME280;40756;-37.950;145.008;2023-02-12T01:59:26;100960.89;;;21.68;31.19
54870;BME280;40756;-37.950;145.008;2023-02-12T02:01:56;100962.54;;;21.78;32.21
54870;BME280;40756;-37.950;145.008;2023-02-12T02:04:28;100972.65;;;20.95;34.13
54870;BME280;40756;-37.950;145.008;2023-02-12T02:07:02;100972.98;;;21.23;34.52
54870;BME280;40756;-37.950;145.008;2023-02-12T02:09:35;100975.59;;;21.74;34.00
54870;BME280;40756;-37.950;145.008;2023-02-12T02:12:06;100973.23;;;21.81;33.17
54870;BME280;40756;-37.950;145.008;2023-02-12T02:14:36;100973.61;;;22.32;33.19
54870;BME280;40756;-37.950;145.008;2023-02-12T02:17:50;100983.37;;;21.51;34.07
54870;BME280;40756;-37.950;145.008;2023-02-12T02:20:50;100980.72;;;21.61;33.23
54870;BME280;40756;-37.950;145.008;2023-02-12T02:24:53;100991.79;;;21.23;34.65
54870;BME280;40756;-37.950;145.008;2023-02-12T02:27:32;100988.21;;;22.36;31.88
54870;BME280;40756;-37.950;145.008;2023-02-12T02:30:18;100990.52;;;22.56;31.38
54870;BME280;40756;-37.950;145.008;2023-02-12T02:32:57;101000.22;;;22.60;30.81
54870;BME280;40756;-37.950;145.008;2023-02-12T02:35:35;101001.58;;;21.86;31.45
54870;BME280;40756;-37.950;145.008;2023-02-12T02:38:23;101005.79;;;21.44;31.76
54870;BME280;40756;-37.950;145.008;2023-02-12T02:40:59;100997.66;;;21.44;32.60
54870;BME280;40756;-37.950;145.008;2023-02-12T02:43:34;100995.59;;;22.05;31.15
54870;BME280;40756;-37.950;145.008;2023-02-12T02:46:08;100983.66;;;21.98;31.01
54870;BME280;40756;-37.950;145.008;2023-02-12T02:48:43;100989.14;;;21.33;32.23
54870;BME280;40756;-37.950;145.008;2023-02-12T02:51:18;100987.68;;;21.78;33.41
54870;BME280;40756;-37.950;145.008;2023-02-12T02:53:54;100989.04;;;21.44;33.65
54870;BME280;40756;-37.950;145.008;2023-02-12T02:56:27;100991.99;;;22.06;32.97
54870;BME280;40756;-37.950;145.008;2023-02-12T02:59:02;100996.14;;;22.09;32.17
54870;BME280;40756;-37.950;145.008;2023-02-12T03:01:37;100997.61;;;22.43;31.99
54870;BME280;40756;-37.950;145.008;2023-02-12T03:04:09;100992.42;;;22.76;30.91
54870;BME280;40756;-37.950;145.008;2023-02-12T03:06:42;100996.70;;;22.63;29.91
54870;BME280;40756;-37.950;145.008;2023-02-12T03:09:18;100994.85;;;23.12;29.66
54870;BME280;40756;-37.950;145.008;2023-02-12T03:11:51;101004.94;;;23.50;29.67
54870;BME280;40756;-37.950;145.008;2023-02-12T03:14:27;101014.91;;;23.33;29.49
54870;BME280;40756;-37.950;145.008;2023-02-12T03:17:04;101006.49;;;23.93;29.00
54870;BME280;40756;-37.950;145.008;2023-02-12T03:19:38;101011.78;;;23.59;30.38
54870;BME280;40756;-37.950;145.008;2023-02-12T03:22:13;101011.67;;;24.00;29.69
54870;BME280;40756;-37.950;145.008;2023-02-12T03:24:47;101008.68;;;23.12;29.80
54870;BME280;40756;-37.950;145.008;2023-02-12T03:27:22;101003.28;;;23.74;30.12
54870;BME280;40756;-37.950;145.008;2023-02-12T03:29:54;100998.69;;;24.43;29.14
54870;BME280;40756;-37.950;145.008;2023-02-12T03:32:29;101007.99;;;23.66;29.73
54870;BME280;40756;-37.950;145.008;2023-02-12T03:35:09;101001.19;;;23.79;28.97
54870;BME280;40756;-37.950;145.008;2023-02-12T03:37:49;101004.50;;;23.59;28.48
54870;BME280;40756;-37.950;145.008;2023-02-12T03:40:26;101001.08;;;23.29;27.86
54870;BME280;40756;-37.950;145.008;2023-02-12T03:43:00;100999.15;;;23.82;28.46
54870;BME280;40756;-37.950;145.008;2023-02-12T03:45:42;100994.90;;;24.74;29.76
54870;BME280;40756;-37.950;145.008;2023-02-12T03:48:18;100996.38;;;24.75;28.21
54870;BME280;40756;-37.950;145.008;2023-02-12T03:50:55;101000.10;;;23.93;28.57
54870;BME280;40756;-37.950;145.008;2023-02-12T03:53:26;101002.68;;;25.21;28.47
54870;BME280;40756;-37.950;145.008;2023-02-12T03:56:01;100994.19;;;23.81;28.88
54870;BME280;40756;-37.950;145.008;2023-02-12T03:58:34;100993.20;;;24.25;28.51
54870;BME280;40756;-37.950;145.008;2023-02-12T04:01:05;100991.96;;;24.26;29.20
54870;BME280;40756;-37.950;145.008;2023-02-12T04:03:35;100995.09;;;24.34;29.07
54870;BME280;40756;-37.950;145.008;2023-02-12T04:06:04;100992.70;;;24.14;28.72
54870;BME280;40756;-37.950;145.008;2023-02-12T04:08:45;101001.55;;;24.80;28.32
54870;BME280;40756;-37.950;145.008;2023-02-12T04:11:24;101001.62;;;23.88;28.33
54870;BME280;40756;-37.950;145.008;2023-02-12T04:14:13;101002.82;;;23.89;29.60
54870;BME280;40756;-37.950;145.008;2023-02-12T04:16:50;101008.37;;;24.66;29.97
54870;BME280;40756;-37.950;145.008;2023-02-12T04:19:29;101011.37;;;24.19;29.91
54870;BME280;40756;-37.950;145.008;2023-02-12T04:22:13;101010.77;;;23.60;30.27
54870;BME280;40756;-37.950;145.008;2023-02-12T04:24:52;101012.61;;;23.85;30.18
54870;BME280;40756;-37.950;145.008;2023-02-12T04:27:28;101019.98;;;23.40;31.43
54870;BME280;40756;-37.950;145.008;2023-02-12T04:30:04;101020.43;;;23.18;30.54
54870;BME280;40756;-37.950;145.008;2023-02-12T04:32:40;101023.41;;;22.94;31.60
54870;BME280;40756;-37.950;145.008;2023-02-12T04:35:17;101031.89;;;22.53;32.02
54870;BME280;40756;-37.950;145.008;2023-02-12T04:37:52;101031.90;;;23.18;31.71
54870;BME280;40756;-37.950;145.008;2023-02-12T04:40:24;101026.21;;;23.41;31.24
54870;BME280;40756;-37.950;145.008;2023-02-12T04:42:54;101024.77;;;22.80;31.15
54870;BME280;40756;-37.950;145.008;2023-02-12T04:45:28;101017.19;;;23.17;31.64
54870;BME280;40756;-37.950;145.008;2023-02-12T04:47:58;101023.05;;;22.44;31.14
54870;BME280;40756;-37.950;145.008;2023-02-12T04:50:36;101022.73;;;22.47;31.19
54870;BME280;40756;-37.950;145.008;2023-02-12T04:53:06;101020.66;;;22.15;32.10
54870;BME280;40756;-37.950;145.008;2023-02-12T04:55:35;101015.21;;;23.31;31.13
54870;BME280;40756;-37.950;145.008;2023-02-12T04:58:05;101015.65;;;22.33;32.21
54870;BME280;40756;-37.950;145.008;2023-02-12T05:00:35;101009.62;;;22.93;32.70
54870;BME280;40756;-37.950;145.008;2023-02-12T05:03:05;101015.05;;;22.77;30.98
54870;BME280;40756;-37.950;145.008;2023-02-12T05:05:34;101014.34;;;22.79;30.21
54870;BME280;40756;-37.950;145.008;2023-02-12T05:08:03;101020.96;;;22.69;30.75
54870;BME280;40756;-37.950;145.008;2023-02-12T05:10:33;101014.71;;;23.30;30.17
54870;BME280;40756;-37.950;145.008;2023-02-12T05:13:03;101019.15;;;22.76;29.82
54870;BME280;40756;-37.950;145.008;2023-02-12T05:15:32;101033.29;;;22.60;31.15
54870;BME280;40756;-37.950;145.008;2023-02-12T05:18:02;101035.93;;;23.21;29.87
54870;BME280;40756;-37.950;145.008;2023-02-12T05:20:31;101030.08;;;22.11;31.07
54870;BME280;40756;-37.950;145.008;2023-02-12T05:23:00;101029.44;;;21.79;32.08
54870;BME280;40756;-37.950;145.008;2023-02-12T05:25:30;101018.97;;;23.09;31.78
54870;BME280;40756;-37.950;145.008;2023-02-12T05:27:59;101020.92;;;22.65;32.46
54870;BME280;40756;-37.950;145.008;2023-02-12T05:30:29;101033.37;;;22.26;30.96
54870;BME280;40756;-37.950;145.008;2023-02-12T05:32:59;101035.16;;;22.73;30.42
54870;BME280;40756;-37.950;145.008;2023-02-12T05:35:28;101034.85;;;22.30;30.99
54870;BME280;40756;-37.950;145.008;2023-02-12T05:37:59;101046.17;;;22.65;32.30
54870;BME280;40756;-37.950;145.008;2023-02-12T05:40:28;101038.54;;;22.93;31.92
54870;BME280;40756;-37.950;145.008;2023-02-12T05:42:58;101038.57;;;22.30;32.27
54870;BME280;40756;-37.950;145.008;2023-02-12T05:45:27;101036.55;;;22.50;31.59
54870;BME280;40756;-37.950;145.008;2023-02-12T05:47:57;101040.11;;;22.81;31.47
54870;BME280;40756;-37.950;145.008;2023-02-12T05:50:26;101040.16;;;22.62;30.90
54870;BME280;40756;-37.950;145.008;2023-02-12T05:52:56;101045.33;;;22.04;32.21
54870;BME280;40756;-37.950;145.008;2023-02-12T05:55:27;101044.98;;;22.84;31.10
54870;BME280;40756;-37.950;145.008;2023-02-12T05:57:56;101058.01;;;21.85;30.84
54870;BME280;40756;-37.950;145.008;2023-02-12T06:00:26;101052.76;;;21.51;31.44
54870;BME280;40756;-37.950;145.008;2023-02-12T06:02:55;101049.63;;;22.54;31.18
54870;BME280;40756;-37.950;145.008;2023-02-12T06:05:25;101054.30;;;22.12;31.22
54870;BME280;40756;-37.950;145.008;2023-02-12T06:07:54;101058.84;;;21.89;30.89
54870;BME280;40756;-37.950;145.008;2023-02-12T06:10:24;101062.51;;;21.43;30.97
54870;BME280;40756;-37.950;145.008;2023-02-12T06:12:55;101063.14;;;21.55;29.56
54870;BME280;40756;-37.950;145.008;2023-02-12T06:15:24;101054.42;;;22.88;29.15
54870;BME280;40756;-37.950;145.008;2023-02-12T06:17:54;101058.70;;;22.42;29.89
54870;BME280;40756;-37.950;145.008;2023-02-12T06:20:23;101067.41;;;21.78;30.01
54870;BME280;40756;-37.950;145.008;2023-02-12T06:22:53;101066.35;;;22.24;30.41
54870;BME280;40756;-37.950;145.008;2023-02-12T06:25:22;101065.01;;;21.38;30.30
54870;BME280;40756;-37.950;145.008;2023-02-12T06:27:51;101065.12;;;22.80;29.17
54870;BME280;40756;-37.950;145.008;2023-02-12T06:30:21;101067.21;;;22.64;28.43
54870;BME280;40756;-37.950;145.008;2023-02-12T06:32:50;101075.47;;;21.79;29.10
54870;BME280;40756;-37.950;145.008;2023-02-12T06:35:20;101075.72;;;22.03;28.92
54870;BME280;40756;-37.950;145.008;2023-02-12T06:37:50;101080.88;;;21.92;29.26
54870;BME280;40756;-37.950;145.008;2023-02-12T06:40:20;101077.86;;;21.88;29.98
54870;BME280;40756;-37.950;145.008;2023-02-12T06:42:50;101076.35;;;21.45;30.47
54870;BME280;40756;-37.950;145.008;2023-02-12T06:45:19;101077.57;;;21.80;30.10
54870;BME280;40756;-37.950;145.008;2023-02-12T06:47:49;101076.46;;;21.72;30.53
54870;BME280;40756;-37.950;145.008;2023-02-12T06:50:18;101075.00;;;22.04;30.12
54870;BME280;40756;-37.950;145.008;2023-02-12T06:52:49;101078.26;;;21.66;30.76
54870;BME280;40756;-37.950;145.008;2023-02-12T06:55:19;101082.12;;;21.62;31.80
54870;BME280;40756;-37.950;145.008;2023-02-12T06:57:48;101075.09;;;21.67;30.79
54870;BME280;40756;-37.950;145.008;2023-02-12T07:00:19;101081.82;;;21.81;30.43
54870;BME280;40756;-37.950;145.008;2023-02-12T07:02:53;101081.18;;;21.95;30.02
54870;BME280;40756;-37.950;145.008;2023-02-12T07:05:23;101086.56;;;21.40;31.15
54870;BME280;40756;-37.950;145.008;2023-02-12T07:07:53;101087.18;;;21.12;31.82
54870;BME280;40756;-37.950;145.008;2023-02-12T07:10:22;101095.10;;;21.28;31.92
54870;BME280;40756;-37.950;145.008;2023-02-12T07:12:52;101088.21;;;21.28;32.65
54870;BME280;40756;-37.950;145.008;2023-02-12T07:15:21;101089.41;;;21.31;32.25
54870;BME280;40756;-37.950;145.008;2023-02-12T07:17:51;101085.40;;;20.08;33.16
54870;BME280;40756;-37.950;145.008;2023-02-12T07:20:20;101090.87;;;20.89;32.94
54870;BME280;40756;-37.950;145.008;2023-02-12T07:22:50;101095.69;;;20.67;32.45
54870;BME280;40756;-37.950;145.008;2023-02-12T07:25:19;101090.69;;;21.14;32.10
54870;BME280;40756;-37.950;145.008;2023-02-12T07:27:49;101087.21;;;21.23;32.59
54870;BME280;40756;-37.950;145.008;2023-02-12T07:30:19;101087.09;;;20.96;32.87
54870;BME280;40756;-37.950;145.008;2023-02-12T07:32:48;101094.02;;;20.75;32.80
54870;BME280;40756;-37.950;145.008;2023-02-12T07:35:17;101099.86;;;21.01;32.07
54870;BME280;40756;-37.950;145.008;2023-02-12T07:37:47;101094.28;;;20.57;31.53
54870;BME280;40756;-37.950;145.008;2023-02-12T07:40:17;101096.62;;;20.42;31.73
54870;BME280;40756;-37.950;145.008;2023-02-12T07:42:47;101097.64;;;20.55;32.31
54870;BME280;40756;-37.950;145.008;2023-02-12T07:45:17;101106.46;;;20.48;33.15
54870;BME280;40756;-37.950;145.008;2023-02-12T07:47:46;101108.77;;;20.47;32.96
54870;BME280;40756;-37.950;145.008;2023-02-12T07:50:16;101118.44;;;19.76;33.17
54870;BME280;40756;-37.950;145.008;2023-02-12T07:52:48;101125.42;;;19.58;32.96
54870;BME280;40756;-37.950;145.008;2023-02-12T07:55:18;101119.57;;;20.06;32.77
54870;BME280;40756;-37.950;145.008;2023-02-12T07:57:47;101128.62;;;19.26;33.93
54870;BME280;40756;-37.950;145.008;2023-02-12T08:00:17;101132.71;;;19.68;33.75
54870;BME280;40756;-37.950;145.008;2023-02-12T08:02:52;101135.17;;;19.40;33.06
54870;BME280;40756;-37.950;145.008;2023-02-12T08:05:21;101141.34;;;18.96;34.36
54870;BME280;40756;-37.950;145.008;2023-02-12T08:07:51;101142.16;;;19.05;34.82
54870;BME280;40756;-37.950;145.008;2023-02-12T08:10:21;101148.23;;;19.31;34.29
54870;BME280;40756;-37.950;145.008;2023-02-12T08:12:50;101156.77;;;18.84;34.47
54870;BME280;40756;-37.950;145.008;2023-02-12T08:15:20;101165.70;;;18.69;34.12
54870;BME280;40756;-37.950;145.008;2023-02-12T08:17:49;101157.17;;;19.05;32.96
54870;BME280;40756;-37.950;145.008;2023-02-12T08:20:19;101160.78;;;18.43;33.23
54870;BME280;40756;-37.950;145.008;2023-02-12T08:22:48;101163.57;;;18.45;33.75
54870;BME280;40756;-37.950;145.008;2023-02-12T08:25:18;101161.52;;;18.60;34.85
54870;BME280;40756;-37.950;145.008;2023-02-12T08:27:47;101165.97;;;18.71;34.94
54870;BME280;40756;-37.950;145.008;2023-02-12T08:30:17;101166.09;;;19.00;33.67
54870;BME280;40756;-37.950;145.008;2023-02-12T08:32:49;101172.16;;;18.35;34.09
54870;BME280;40756;-37.950;145.008;2023-02-12T08:35:19;101173.46;;;18.64;34.64
54870;BME280;40756;-37.950;145.008;2023-02-12T08:37:49;101176.11;;;18.62;35.21
54870;BME280;40756;-37.950;145.008;2023-02-12T08:40:19;101180.21;;;18.84;34.94
54870;BME280;40756;-37.950;145.008;2023-02-12T08:42:51;101183.36;;;18.39;34.99
54870;BME280;40756;-37.950;145.008;2023-02-12T08:45:21;101179.28;;;18.42;34.86
54870;BME280;40756;-37.950;145.008;2023-02-12T08:47:50;101179.11;;;18.52;34.94
54870;BME280;40756;-37.950;145.008;2023-02-12T08:50:20;101176.62;;;18.34;36.32
54870;BME280;40756;-37.950;145.008;2023-02-12T08:52:49;101179.57;;;18.13;36.61
54870;BME280;40756;-37.950;145.008;2023-02-12T08:55:18;101174.31;;;18.41;36.11
54870;BME280;40756;-37.950;145.008;2023-02-12T08:57:48;101178.94;;;18.41;36.08
54870;BME280;40756;-37.950;145.008;2023-02-12T09:00:18;101178.43;;;18.89;35.99
54870;BME280;40756;-37.950;145.008;2023-02-12T09:02:49;101180.30;;;17.84;36.79
54870;BME280;40756;-37.950;145.008;2023-02-12T09:05:19;101184.44;;;18.06;37.18
54870;BME280;40756;-37.950;145.008;2023-02-12T09:07:50;101183.47;;;18.46;36.78
54870;BME280;40756;-37.950;145.008;2023-02-12T09:10:19;101184.10;;;17.81;36.70
54870;BME280;40756;-37.950;145.008;2023-02-12T09:12:49;101187.95;;;18.30;36.20
54870;BME280;40756;-37.950;145.008;2023-02-12T09:15:19;101188.49;;;17.99;36.47
54870;BME280;40756;-37.950;145.008;2023-02-12T09:17:48;101185.24;;;18.33;35.76
54870;BME280;40756;-37.950;145.008;2023-02-12T09:20:18;101189.35;;;18.58;36.36
54870;BME280;40756;-37.950;145.008;2023-02-12T09:22:47;101188.46;;;17.95;36.38
54870;BME280;40756;-37.950;145.008;2023-02-12T09:25:17;101184.98;;;18.30;35.77
54870;BME280;40756;-37.950;145.008;2023-02-12T09:27:47;101189.65;;;18.57;36.21
54870;BME280;40756;-37.950;145.008;2023-02-12T09:30:17;101196.14;;;17.97;36.73
54870;BME280;40756;-37.950;145.008;2023-02-12T09:32:47;101197.39;;;18.29;36.44
54870;BME280;40756;-37.950;145.008;2023-02-12T09:35:16;101198.15;;;18.06;35.95
54870;BME280;40756;-37.950;145.008;2023-02-12T09:37:46;101205.46;;;17.83;36.85
54870;BME280;40756;-37.950;145.008;2023-02-12T09:40:21;101203.51;;;17.78;37.01
54870;BME280;40756;-37.950;145.008;2023-02-12T09:43:01;101203.07;;;18.00;37.32
54870;BME280;40756;-37.950;145.008;2023-02-12T09:45:36;101200.07;;;17.89;37.28
54870;BME280;40756;-37.950;145.008;2023-02-12T09:48:21;101195.38;;;18.14;36.88
54870;BME280;40756;-37.950;145.008;2023-02-12T09:50:58;101195.67;;;18.21;36.92
54870;BME280;40756;-37.950;145.008;2023-02-12T09:53:31;101194.02;;;18.11;37.53
54870;BME280;40756;-37.950;145.008;2023-02-12T09:56:07;101191.01;;;18.25;37.26
54870;BME280;40756;-37.950;145.008;2023-02-12T09:58:41;101193.12;;;17.99;38.04
54870;BME280;40756;-37.950;145.008;2023-02-12T10:01:16;101190.53;;;17.89;38.20
54870;BME280;40756;-37.950;145.008;2023-02-12T10:03:47;101195.30;;;18.20;37.73
54870;BME280;40756;-37.950;145.008;2023-02-12T10:06:20;101193.86;;;18.27;37.55
54870;BME280;40756;-37.950;145.008;2023-02-12T10:09:02;101202.13;;;18.11;37.73
54870;BME280;40756;-37.950;145.008;2023-02-12T10:11:48;101200.50;;;17.65;38.52
54870;BME280;40756;-37.950;145.008;2023-02-12T10:14:58;101208.42;;;17.33;38.83
54870;BME280;40756;-37.950;145.008;2023-02-12T10:17:39;101203.55;;;17.88;38.55
54870;BME280;40756;-37.950;145.008;2023-02-12T10:20:41;101201.56;;;18.23;38.10
54870;BME280;40756;-37.950;145.008;2023-02-12T10:23:28;101206.77;;;17.93;37.98
54870;BME280;40756;-37.950;145.008;2023-02-12T10:26:13;101210.43;;;17.92;38.11
54870;BME280;40756;-37.950;145.008;2023-02-12T10:28:44;101205.57;;;17.75;38.51
54870;BME280;40756;-37.950;145.008;2023-02-12T10:31:18;101204.73;;;17.85;38.50
54870;BME280;40756;-37.950;145.008;2023-02-12T10:33:50;101211.25;;;17.67;39.23
54870;BME280;40756;-37.950;145.008;2023-02-12T10:36:30;101207.04;;;17.52;38.88
54870;BME280;40756;-37.950;145.008;2023-02-12T10:39:13;101211.02;;;17.74;38.60
54870;BME280;40756;-37.950;145.008;2023-02-12T10:41:47;101216.76;;;18.20;38.65
54870;BME280;40756;-37.950;145.008;2023-02-12T10:44:19;101220.72;;;18.18;38.94
54870;BME280;40756;-37.950;145.008;2023-02-12T10:46:49;101224.48;;;17.63;39.30
54870;BME280;40756;-37.950;145.008;2023-02-12T10:49:19;101230.22;;;17.45;39.47
54870;BME280;40756;-37.950;145.008;2023-02-12T10:52:07;101231.03;;;17.61;39.47
54870;BME280;40756;-37.950;145.008;2023-02-12T10:54:41;101233.30;;;17.29;40.26
54870;BME280;40756;-37.950;145.008;2023-02-12T10:57:17;101237.93;;;17.60;39.48
54870;BME280;40756;-37.950;145.008;2023-02-12T10:59:49;101241.45;;;17.39;39.74
54870;BME280;40756;-37.950;145.008;2023-02-12T11:02:22;101241.93;;;17.09;39.01
54870;BME280;40756;-37.950;145.008;2023-02-12T11:04:53;101243.17;;;17.44;39.01
54870;BME280;40756;-37.950;145.008;2023-02-12T11:07:24;101241.40;;;17.72;39.15
54870;BME280;40756;-37.950;145.008;2023-02-12T11:09:55;101245.27;;;17.35;38.70
54870;BME280;40756;-37.950;145.008;2023-02-12T11:12:30;101241.47;;;17.81;38.44
54870;BME280;40756;-37.950;145.008;2023-02-12T11:15:03;101240.67;;;18.10;37.75
54870;BME280;40756;-37.950;145.008;2023-02-12T11:17:36;101235.75;;;17.82;36.98
54870;BME280;40756;-37.950;145.008;2023-02-12T11:20:21;101236.90;;;17.93;37.04
54870;BME280;40756;-37.950;145.008;2023-02-12T11:22:54;101233.02;;;18.05;37.22
54870;BME280;40756;-37.950;145.008;2023-02-12T11:25:27;101236.71;;;17.58;37.77
54870;BME280;40756;-37.950;145.008;2023-02-12T11:28:04;101239.87;;;17.42;37.85
54870;BME280;40756;-37.950;145.008;2023-02-12T11:30:34;101236.71;;;16.82;38.19
54870;BME280;40756;-37.950;145.008;2023-02-12T11:33:22;101239.97;;;17.67;37.43
54870;BME280;40756;-37.950;145.008;2023-02-12T11:35:53;101242.33;;;17.18;37.73
54870;BME280;40756;-37.950;145.008;2023-02-12T11:38:27;101241.05;;;17.45;37.94
54870;BME280;40756;-37.950;145.008;2023-02-12T11:41:02;101238.83;;;17.15;37.34
54870;BME280;40756;-37.950;145.008;2023-02-12T11:43:34;101238.91;;;17.45;37.00
54870;BME280;40756;-37.950;145.008;2023-02-12T11:46:07;101241.64;;;17.61;37.02
54870;BME280;40756;-37.950;145.008;2023-02-12T11:48:38;101240.11;;;17.68;35.89
54870;BME280;40756;-37.950;145.008;2023-02-12T11:51:09;101240.34;;;17.70;35.97
54870;BME280;40756;-37.950;145.008;2023-02-12T11:53:49;101235.27;;;17.13;35.54
54870;BME280;40756;-37.950;145.008;2023-02-12T11:56:20;101230.38;;;17.51;35.33
54870;BME280;40756;-37.950;145.008;2023-02-12T11:58:52;101235.09;;;17.48;34.79
54870;BME280;40756;-37.950;145.008;2023-02-12T12:01:26;101230.93;;;17.89;34.48
54870;BME280;40756;-37.950;145.008;2023-02-12T12:04:02;101231.58;;;17.65;34.51
54870;BME280;40756;-37.950;145.008;2023-02-12T12:06:36;101234.74;;;16.80;35.60
54870;BME280;40756;-37.950;145.008;2023-02-12T12:09:14;101232.22;;;16.74;35.70
54870;BME280;40756;-37.950;145.008;2023-02-12T12:11:56;101227.79;;;17.21;35.51
54870;BME280;40756;-37.950;145.008;2023-02-12T12:14:30;101230.74;;;17.18;34.00
54870;BME280;40756;-37.950;145.008;2023-02-12T12:17:04;101230.05;;;17.33;34.25
54870;BME280;40756;-37.950;145.008;2023-02-12T12:19:44;101231.43;;;17.10;34.52
54870;BME280;40756;-37.950;145.008;2023-02-12T12:22:27;101224.54;;;17.17;35.20
54870;BME280;40756;-37.950;145.008;2023-02-12T12:25:09;101228.99;;;16.80;35.53
54870;BME280;40756;-37.950;145.008;2023-02-12T12:27:50;101227.59;;;17.27;35.39
54870;BME280;40756;-37.950;145.008;2023-02-12T12:30:26;101225.66;;;17.16;35.49
54870;BME280;40756;-37.950;145.008;2023-02-12T12:32:59;101224.97;;;17.32;34.98
54870;BME280;40756;-37.950;145.008;2023-02-12T12:35:41;101228.91;;;17.13;34.71
54870;BME280;40756;-37.950;145.008;2023-02-12T12:38:21;101231.31;;;17.12;35.44
54870;BME280;40756;-37.950;145.008;2023-02-12T12:41:02;101223.06;;;17.22;35.19
54870;BME280;40756;-37.950;145.008;2023-02-12T12:43:44;101225.21;;;17.57;34.96
54870;BME280;40756;-37.950;145.008;2023-02-12T12:46:45;101221.51;;;17.76;34.55
54870;BME280;40756;-37.950;145.008;2023-02-12T12:49:31;101220.25;;;17.33;34.76
54870;BME280;40756;-37.950;145.008;2023-02-12T12:53:20;101219.01;;;17.57;34.67